sensor_id;sensor_type;location;lat;lon;timestamp;pressure;altitude;pressure_sealevel;temperature;humidity
18918;BME280;9591;52.742;13.650;2022-09-03T00:02:24;101541.69;;;9.21;100.00
18918;BME280;9591;52.742;13.650;2022-09-03T00:05:17;101543.53;;;9.16;100.00
18918;BME280;9591;52.742;13.650;2022-09-03T00:08:11;101537.41;;;9.12;100.00
18918;BME280;9591;52.742;13.650;2022-09-03T00:11:04;101547.13;;;9.10;100.00
18918;BME280;9591;52.742;13.650;2022-09-03T00:13:58;101546.34;;;9.04;100.00
18918;BME280;9591;52.742;13.650;2022-09-03T00:16:52;101545.47;;;9.03;100.00
18918;BME280;9591;52.742;13.650;2022-09-03T00:19:43;101546.38;;;9.01;100.00
18918;BME280;9591;52.742;13.650;2022-09-03T00:22:34;101538.31;;;9.10;100.00
18918;BME280;9591;52.742;13.650;2022-09-03T00:25:26;101543.63;;;9.08;100.00
18918;BME280;9591;52.742;13.650;2022-09-03T00:28:18;101543.72;;;9.02;100.00
18918;BME280;9591;52.742;13.650;2022-09-03T00:31:13;101544.69;;;8.95;100.00
18918;BME280;9591;52.742;13.650;2022-09-03T00:34:06;101544.69;;;8.94;100.00
18918;BME280;9591;52.742;13.650;2022-09-03T00:36:55;101550.88;;;8.91;100.00
18918;BME280;9591;52.742;13.650;2022-09-03T00:39:43;101544.75;;;8.89;100.00
18918;BME280;9591;52.742;13.650;2022-09-03T00:42:38;101536.00;;;8.84;100.00
18918;BME280;9591;52.742;13.650;2022-09-03T00:45:33;101542.19;;;8.83;100.00
18918;BME280;9591;52.742;13.650;2022-09-03T00:48:45;101537.00;;;8.75;100.00
18918;BME280;9591;52.742;13.650;2022-09-03T00:51:46;101523.97;;;8.62;100.00
18918;BME280;9591;52.742;13.650;2022-09-03T00:54:42;101538.75;;;8.75;100.00
18918;BME280;9591;52.742;13.650;2022-09-03T00:57:45;101533.47;;;8.75;100.00
18918;BME280;9591;52.742;13.650;2022-09-03T01:00:41;101532.59;;;8.76;100.00
18918;BME280;9591;52.742;13.650;2022-09-03T01:03:37;101536.16;;;8.72;100.00
18918;BME280;9591;52.742;13.650;2022-09-03T01:06:35;101537.13;;;8.66;100.00
18918;BME280;9591;52.742;13.650;2022-09-03T01:09:35;101532.66;;;8.70;100.00
18918;BME280;9591;52.742;13.650;2022-09-03T01:12:34;101529.16;;;8.68;100.00
18918;BME280;9591;52.742;13.650;2022-09-03T01:15:29;101534.44;;;8.68;100.00
18918;BME280;9591;52.742;13.650;2022-09-03T01:18:25;101524.84;;;8.64;100.00
18918;BME280;9591;52.742;13.650;2022-09-03T01:21:38;101522.28;;;8.56;100.00
18918;BME280;9591;52.742;13.650;2022-09-03T01:25:06;101528.41;;;8.60;100.00
18918;BME280;9591;52.742;13.650;2022-09-03T01:28:21;101533.69;;;8.58;100.00
18918;BME280;9591;52.742;13.650;2022-09-03T01:31:18;101531.09;;;8.55;100.00
18918;BME280;9591;52.742;13.650;2022-09-03T01:34:18;101530.22;;;8.56;100.00
18918;BME280;9591;52.742;13.650;2022-09-03T01:37:13;101523.19;;;8.53;100.00
18918;BME280;9591;52.742;13.650;2022-09-03T01:40:07;101525.88;;;8.50;100.00
18918;BME280;9591;52.742;13.650;2022-09-03T01:43:08;101525.91;;;8.47;100.00
18918;BME280;9591;52.742;13.650;2022-09-03T01:46:01;101523.31;;;8.41;100.00
18918;BME280;9591;52.742;13.650;2022-09-03T01:48:52;101519.00;;;8.34;100.00
18918;BME280;9591;52.742;13.650;2022-09-03T01:51:44;101512.84;;;8.34;100.00
18918;BME280;9591;52.742;13.650;2022-09-03T01:54:51;101515.50;;;8.31;100.00
18918;BME280;9591;52.742;13.650;2022-09-03T01:57:48;101512.88;;;8.28;100.00
18918;BME280;9591;52.742;13.650;2022-09-03T02:00:38;101519.88;;;8.32;100.00
18918;BME280;9591;52.742;13.650;2022-09-03T02:03:34;101518.13;;;8.34;100.00
18918;BME280;9591;52.742;13.650;2022-09-03T02:06:25;101523.38;;;8.32;100.00
18918;BME280;9591;52.742;13.650;2022-09-03T02:09:14;101526.97;;;8.27;100.00
18918;BME280;9591;52.742;13.650;2022-09-03T02:12:07;101525.25;;;8.21;100.00
18918;BME280;9591;52.742;13.650;2022-09-03T02:14:56;101533.22;;;8.18;100.00
18918;BME280;9591;52.742;13.650;2022-09-03T02:17:44;101512.25;;;8.03;100.00
18918;BME280;9591;52.742;13.650;2022-09-03T02:20:36;101530.63;;;8.13;100.00
18918;BME280;9591;52.742;13.650;2022-09-03T02:23:24;101536.75;;;8.14;100.00
18918;BME280;9591;52.742;13.650;2022-09-03T02:26:15;101535.84;;;8.16;100.00
18918;BME280;9591;52.742;13.650;2022-09-03T02:29:04;101526.25;;;8.08;100.00
18918;BME280;9591;52.742;13.650;2022-09-03T02:31:51;101530.69;;;8.04;100.00
18918;BME280;9591;52.742;13.650;2022-09-03T02:34:37;101532.47;;;8.04;100.00
18918;BME280;9591;52.742;13.650;2022-09-03T02:37:26;101522.75;;;8.06;100.00
18918;BME280;9591;52.742;13.650;2022-09-03T02:40:12;101528.06;;;8.04;100.00
18918;BME280;9591;52.742;13.650;2022-09-03T02:42:59;101526.28;;;8.05;100.00
18918;BME280;9591;52.742;13.650;2022-09-03T02:45:47;101528.03;;;8.06;100.00
18918;BME280;9591;52.742;13.650;2022-09-03T02:48:36;101531.53;;;8.09;100.00
18918;BME280;9591;52.742;13.650;2022-09-03T02:51:23;101522.66;;;8.18;100.00
18918;BME280;9591;52.742;13.650;2022-09-03T02:54:12;101522.59;;;8.22;100.00
18918;BME280;9591;52.742;13.650;2022-09-03T02:57:05;101519.00;;;8.34;100.00
18918;BME280;9591;52.742;13.650;2022-09-03T02:59:52;101524.19;;;8.43;100.00
18918;BME280;9591;52.742;13.650;2022-09-03T03:02:39;101525.81;;;8.55;100.00
18918;BME280;9591;52.742;13.650;2022-09-03T03:05:29;101519.56;;;8.64;100.00
18918;BME280;9591;52.742;13.650;2022-09-03T03:08:23;101522.09;;;8.70;100.00
18918;BME280;9591;52.742;13.650;2022-09-03T03:11:13;101508.78;;;8.77;100.00
18918;BME280;9591;52.742;13.650;2022-09-03T03:14:02;101527.22;;;8.82;100.00
18918;BME280;9591;52.742;13.650;2022-09-03T03:16:49;101522.72;;;8.90;100.00
18918;BME280;9591;52.742;13.650;2022-09-03T03:19:36;101521.66;;;9.05;100.00
18918;BME280;9591;52.742;13.650;2022-09-03T03:22:23;101521.44;;;9.22;100.00
18918;BME280;9591;52.742;13.650;2022-09-03T03:25:10;101516.63;;;9.48;100.00
18918;BME280;9591;52.742;13.650;2022-09-03T03:27:58;101515.06;;;9.89;100.00
18918;BME280;9591;52.742;13.650;2022-09-03T03:30:45;101519.88;;;10.16;100.00
18918;BME280;9591;52.742;13.650;2022-09-03T03:33:33;101516.00;;;10.37;100.00
18918;BME280;9591;52.742;13.650;2022-09-03T03:36:21;101514.66;;;10.59;100.00
18918;BME280;9591;52.742;13.650;2022-09-03T03:39:08;101524.81;;;10.80;100.00
18918;BME280;9591;52.742;13.650;2022-09-03T03:41:55;101522.88;;;10.89;100.00
18918;BME280;9591;52.742;13.650;2022-09-03T03:44:43;101527.94;;;11.01;100.00
18918;BME280;9591;52.742;13.650;2022-09-03T03:47:30;101517.16;;;11.08;100.00
18918;BME280;9591;52.742;13.650;2022-09-03T03:50:17;101520.41;;;11.21;100.00
18918;BME280;9591;52.742;13.650;2022-09-03T03:53:04;101515.75;;;11.31;100.00
18918;BME280;9591;52.742;13.650;2022-09-03T03:55:54;101528.63;;;11.47;100.00
18918;BME280;9591;52.742;13.650;2022-09-03T03:58:41;101526.66;;;11.56;100.00
18918;BME280;9591;52.742;13.650;2022-09-03T04:01:30;101530.16;;;11.58;100.00
18918;BME280;9591;52.742;13.650;2022-09-03T04:04:17;101527.31;;;11.65;100.00
18918;BME280;9591;52.742;13.650;2022-09-03T04:07:04;101530.69;;;11.72;100.00
18918;BME280;9591;52.742;13.650;2022-09-03T04:09:50;101525.31;;;11.75;100.00
18918;BME280;9591;52.742;13.650;2022-09-03T04:12:37;101527.03;;;11.79;100.00
18918;BME280;9591;52.742;13.650;2022-09-03T04:15:24;101518.09;;;11.81;100.00
18918;BME280;9591;52.742;13.650;2022-09-03T04:18:12;101517.06;;;11.89;100.00
18918;BME280;9591;52.742;13.650;2022-09-03T04:21:00;101522.25;;;11.93;100.00
18918;BME280;9591;52.742;13.650;2022-09-03T04:23:49;101524.03;;;11.93;100.00
18918;BME280;9591;52.742;13.650;2022-09-03T04:26:36;101522.88;;;12.03;100.00
18918;BME280;9591;52.742;13.650;2022-09-03T04:29:25;101520.06;;;12.09;100.00
18918;BME280;9591;52.742;13.650;2022-09-03T04:32:15;101515.63;;;12.09;100.00
18918;BME280;9591;52.742;13.650;2022-09-03T04:35:21;101516.34;;;12.14;100.00
18918;BME280;9591;52.742;13.650;2022-09-03T04:38:09;101515.31;;;12.20;100.00
18918;BME280;9591;52.742;13.650;2022-09-03T04:40:55;101516.28;;;12.18;100.00
18918;BME280;9591;52.742;13.650;2022-09-03T04:43:43;101513.69;;;12.14;100.00
18918;BME280;9591;52.742;13.650;2022-09-03T04:46:35;101503.56;;;12.29;100.00
18918;BME280;9591;52.742;13.650;2022-09-03T04:49:22;101503.50;;;12.32;100.00
18918;BME280;9591;52.742;13.650;2022-09-03T04:52:10;101507.78;;;12.37;100.00
18918;BME280;9591;52.742;13.650;2022-09-03T04:54:57;101512.13;;;12.40;100.00
18918;BME280;9591;52.742;13.650;2022-09-03T04:57:44;101519.81;;;12.51;100.00
18918;BME280;9591;52.742;13.650;2022-09-03T05:00:31;101518.75;;;12.56;100.00
18918;BME280;9591;52.742;13.650;2022-09-03T05:03:18;101532.66;;;12.66;100.00
18918;BME280;9591;52.742;13.650;2022-09-03T05:06:06;101530.72;;;12.72;100.00
18918;BME280;9591;52.742;13.650;2022-09-03T05:08:56;101530.66;;;12.74;100.00
18918;BME280;9591;52.742;13.650;2022-09-03T05:11:43;101531.19;;;12.87;100.00
18918;BME280;9591;52.742;13.650;2022-09-03T05:14:30;101527.72;;;13.12;100.00
18918;BME280;9591;52.742;13.650;2022-09-03T05:17:17;101524.59;;;13.57;100.00
18918;BME280;9591;52.742;13.650;2022-09-03T05:20:05;101513.34;;;13.75;100.00
18918;BME280;9591;52.742;13.650;2022-09-03T05:22:52;101526.03;;;13.94;100.00
18918;BME280;9591;52.742;13.650;2022-09-03T05:25:40;101531.69;;;13.85;100.00
18918;BME280;9591;52.742;13.650;2022-09-03T05:28:29;101530.88;;;13.83;100.00
18918;BME280;9591;52.742;13.650;2022-09-03T05:31:17;101516.13;;;13.72;100.00
18918;BME280;9591;52.742;13.650;2022-09-03T05:34:05;101531.66;;;13.58;100.00
18918;BME280;9591;52.742;13.650;2022-09-03T05:36:52;101527.47;;;13.51;100.00
18918;BME280;9591;52.742;13.650;2022-09-03T05:39:39;101527.94;;;13.36;100.00
18918;BME280;9591;52.742;13.650;2022-09-03T05:42:27;101528.13;;;13.30;100.00
18918;BME280;9591;52.742;13.650;2022-09-03T05:45:16;101532.91;;;13.19;100.00
18918;BME280;9591;52.742;13.650;2022-09-03T05:48:03;101532.19;;;13.12;100.00
18918;BME280;9591;52.742;13.650;2022-09-03T05:50:58;101539.31;;;13.10;100.00
18918;BME280;9591;52.742;13.650;2022-09-03T05:53:46;101537.31;;;13.20;100.00
18918;BME280;9591;52.742;13.650;2022-09-03T05:56:35;101528.53;;;13.16;100.00
18918;BME280;9591;52.742;13.650;2022-09-03T05:59:23;101532.84;;;13.20;100.00
18918;BME280;9591;52.742;13.650;2022-09-03T06:02:10;101530.06;;;13.25;100.00
18918;BME280;9591;52.742;13.650;2022-09-03T06:04:58;101527.28;;;13.28;100.00
18918;BME280;9591;52.742;13.650;2022-09-03T06:07:45;101530.06;;;13.25;100.00
18918;BME280;9591;52.742;13.650;2022-09-03T06:10:32;101536.69;;;13.39;100.00
18918;BME280;9591;52.742;13.650;2022-09-03T06:13:25;101535.38;;;13.53;100.00
18918;BME280;9591;52.742;13.650;2022-09-03T06:16:13;101529.63;;;13.93;100.00
18918;BME280;9591;52.742;13.650;2022-09-03T06:19:00;101528.03;;;14.14;100.00
18918;BME280;9591;52.742;13.650;2022-09-03T06:21:47;101536.97;;;14.37;100.00
18918;BME280;9591;52.742;13.650;2022-09-03T06:24:34;101536.56;;;14.50;99.42
18918;BME280;9591;52.742;13.650;2022-09-03T06:27:21;101526.59;;;14.55;99.88
18918;BME280;9591;52.742;13.650;2022-09-03T06:30:09;101530.78;;;14.62;100.00
18918;BME280;9591;52.742;13.650;2022-09-03T06:32:57;101539.50;;;14.67;96.82
18918;BME280;9591;52.742;13.650;2022-09-03T06:35:44;101533.56;;;14.59;98.08
18918;BME280;9591;52.742;13.650;2022-09-03T06:38:33;101529.75;;;14.66;97.46
18918;BME280;9591;52.742;13.650;2022-09-03T06:41:23;101532.31;;;14.69;97.54
18918;BME280;9591;52.742;13.650;2022-09-03T06:44:10;101533.84;;;14.74;97.35
18918;BME280;9591;52.742;13.650;2022-09-03T06:46:57;101541.50;;;14.84;96.71
18918;BME280;9591;52.742;13.650;2022-09-03T06:49:47;101544.13;;;14.85;95.54
18918;BME280;9591;52.742;13.650;2022-09-03T06:52:34;101544.66;;;14.95;96.73
18918;BME280;9591;52.742;13.650;2022-09-03T06:55:22;101536.25;;;15.05;95.98
18918;BME280;9591;52.742;13.650;2022-09-03T06:58:09;101532.88;;;15.00;95.36
18918;BME280;9591;52.742;13.650;2022-09-03T07:01:00;101541.63;;;15.04;93.96
18918;BME280;9591;52.742;13.650;2022-09-03T07:03:51;101543.78;;;14.94;93.66
18918;BME280;9591;52.742;13.650;2022-09-03T07:06:41;101541.16;;;14.93;94.27
18918;BME280;9591;52.742;13.650;2022-09-03T07:09:28;101544.69;;;14.93;95.12
18918;BME280;9591;52.742;13.650;2022-09-03T07:12:16;101543.44;;;15.03;92.84
18918;BME280;9591;52.742;13.650;2022-09-03T07:15:04;101559.50;;;15.02;92.21
18918;BME280;9591;52.742;13.650;2022-09-03T07:17:51;101547.78;;;15.06;92.73
18918;BME280;9591;52.742;13.650;2022-09-03T07:20:37;101547.91;;;15.03;93.30
18918;BME280;9591;52.742;13.650;2022-09-03T07:23:26;101540.66;;;15.06;92.30
18918;BME280;9591;52.742;13.650;2022-09-03T07:26:15;101547.50;;;15.14;92.92
18918;BME280;9591;52.742;13.650;2022-09-03T07:29:02;101549.47;;;15.32;91.34
18918;BME280;9591;52.742;13.650;2022-09-03T07:31:50;101544.63;;;15.41;90.15
18918;BME280;9591;52.742;13.650;2022-09-03T07:34:37;101547.66;;;15.32;90.10
18918;BME280;9591;52.742;13.650;2022-09-03T07:37:24;101549.09;;;15.41;90.52
18918;BME280;9591;52.742;13.650;2022-09-03T07:40:13;101542.53;;;15.50;91.32
18918;BME280;9591;52.742;13.650;2022-09-03T07:43:02;101545.00;;;15.54;90.60
18918;BME280;9591;52.742;13.650;2022-09-03T07:45:49;101544.16;;;15.76;89.43
18918;BME280;9591;52.742;13.650;2022-09-03T07:48:35;101543.91;;;15.82;86.62
18918;BME280;9591;52.742;13.650;2022-09-03T07:51:24;101543.09;;;15.80;88.10
18918;BME280;9591;52.742;13.650;2022-09-03T07:54:11;101545.44;;;15.87;87.87
18918;BME280;9591;52.742;13.650;2022-09-03T07:56:59;101540.41;;;16.01;87.61
18918;BME280;9591;52.742;13.650;2022-09-03T07:59:47;101550.44;;;16.17;86.12
18918;BME280;9591;52.742;13.650;2022-09-03T08:02:34;101535.09;;;16.22;83.17
18918;BME280;9591;52.742;13.650;2022-09-03T08:05:21;101537.75;;;16.22;83.55
18918;BME280;9591;52.742;13.650;2022-09-03T08:08:08;101547.06;;;16.33;85.25
18918;BME280;9591;52.742;13.650;2022-09-03T08:11:03;101546.97;;;16.55;82.72
18918;BME280;9591;52.742;13.650;2022-09-03T08:13:56;101523.16;;;16.49;82.66
18918;BME280;9591;52.742;13.650;2022-09-03T08:16:46;101552.03;;;16.82;82.87
18918;BME280;9591;52.742;13.650;2022-09-03T08:19:33;101546.69;;;16.82;81.44
18918;BME280;9591;52.742;13.650;2022-09-03T08:22:19;101550.19;;;17.02;81.28
18918;BME280;9591;52.742;13.650;2022-09-03T08:25:07;101537.19;;;17.14;80.38
18918;BME280;9591;52.742;13.650;2022-09-03T08:27:58;101546.16;;;17.31;80.08
18918;BME280;9591;52.742;13.650;2022-09-03T08:30:46;101549.69;;;17.51;78.80
18918;BME280;9591;52.742;13.650;2022-09-03T08:33:33;101542.31;;;17.37;77.77
18918;BME280;9591;52.742;13.650;2022-09-03T08:36:24;101544.25;;;17.52;77.72
18918;BME280;9591;52.742;13.650;2022-09-03T08:39:11;101541.81;;;17.66;78.82
18918;BME280;9591;52.742;13.650;2022-09-03T08:42:08;101541.13;;;17.61;75.14
18918;BME280;9591;52.742;13.650;2022-09-03T08:44:58;101539.53;;;17.76;77.05
18918;BME280;9591;52.742;13.650;2022-09-03T08:47:51;101532.72;;;17.88;73.34
18918;BME280;9591;52.742;13.650;2022-09-03T08:50:44;101533.53;;;18.07;72.56
18918;BME280;9591;52.742;13.650;2022-09-03T08:53:40;101529.88;;;18.25;73.27
18918;BME280;9591;52.742;13.650;2022-09-03T08:56:31;101529.00;;;18.42;73.40
18918;BME280;9591;52.742;13.650;2022-09-03T08:59:22;101522.47;;;18.65;71.48
18918;BME280;9591;52.742;13.650;2022-09-03T09:02:24;101524.88;;;18.70;69.55
18918;BME280;9591;52.742;13.650;2022-09-03T09:05:16;101520.34;;;18.87;70.11
18918;BME280;9591;52.742;13.650;2022-09-03T09:08:15;101522.53;;;18.96;68.56
18918;BME280;9591;52.742;13.650;2022-09-03T09:11:10;101521.75;;;18.94;68.57
18918;BME280;9591;52.742;13.650;2022-09-03T09:14:03;101521.16;;;19.05;66.94
18918;BME280;9591;52.742;13.650;2022-09-03T09:17:00;101516.06;;;19.01;68.21
18918;BME280;9591;52.742;13.650;2022-09-03T09:19:57;101509.03;;;18.98;64.87
18918;BME280;9591;52.742;13.650;2022-09-03T09:22:52;101506.69;;;19.08;66.68
18918;BME280;9591;52.742;13.650;2022-09-03T09:25:46;101498.81;;;19.20;64.41
18918;BME280;9591;52.742;13.650;2022-09-03T09:28:35;101461.13;;;19.22;65.50
18918;BME280;9591;52.742;13.650;2022-09-03T09:31:23;101495.59;;;19.45;65.78
18918;BME280;9591;52.742;13.650;2022-09-03T09:34:11;101490.94;;;19.64;62.83
18918;BME280;9591;52.742;13.650;2022-09-03T09:36:58;101492.59;;;19.67;62.20
18918;BME280;9591;52.742;13.650;2022-09-03T09:39:55;101486.94;;;19.72;62.21
18918;BME280;9591;52.742;13.650;2022-09-03T09:42:43;101485.44;;;19.82;59.13
18918;BME280;9591;52.742;13.650;2022-09-03T09:45:29;101495.94;;;19.86;58.41
18918;BME280;9591;52.742;13.650;2022-09-03T09:48:22;101486.34;;;19.96;59.39
18918;BME280;9591;52.742;13.650;2022-09-03T09:51:20;101477.81;;;20.04;55.17
18918;BME280;9591;52.742;13.650;2022-09-03T09:54:13;101478.81;;;20.17;50.83
18918;BME280;9591;52.742;13.650;2022-09-03T09:57:04;101475.28;;;20.31;50.66
18918;BME280;9591;52.742;13.650;2022-09-03T10:00:01;101476.72;;;20.37;48.41
18918;BME280;9591;52.742;13.650;2022-09-03T10:02:55;101477.84;;;20.48;48.88
18918;BME280;9591;52.742;13.650;2022-09-03T10:05:43;101471.13;;;20.55;48.17
18918;BME280;9591;52.742;13.650;2022-09-03T10:08:29;101469.59;;;20.66;47.69
18918;BME280;9591;52.742;13.650;2022-09-03T10:11:17;101466.78;;;20.67;45.90
18918;BME280;9591;52.742;13.650;2022-09-03T10:14:17;101459.44;;;20.83;47.23
18918;BME280;9591;52.742;13.650;2022-09-03T10:17:10;101483.38;;;20.88;44.77
18918;BME280;9591;52.742;13.650;2022-09-03T10:20:08;101463.44;;;20.78;44.53
18918;BME280;9591;52.742;13.650;2022-09-03T10:23:16;101469.25;;;20.84;44.71
18918;BME280;9591;52.742;13.650;2022-09-03T10:26:08;101458.38;;;21.00;45.25
18918;BME280;9591;52.742;13.650;2022-09-03T10:28:57;101461.25;;;21.25;42.16
18918;BME280;9591;52.742;13.650;2022-09-03T10:31:54;101454.09;;;21.39;41.84
18918;BME280;9591;52.742;13.650;2022-09-03T10:34:49;101458.41;;;21.41;41.33
18918;BME280;9591;52.742;13.650;2022-09-03T10:37:45;101453.22;;;21.38;41.45
18918;BME280;9591;52.742;13.650;2022-09-03T10:40:37;101455.72;;;21.41;40.97
18918;BME280;9591;52.742;13.650;2022-09-03T10:43:43;101451.84;;;21.45;42.00
18918;BME280;9591;52.742;13.650;2022-09-03T10:46:38;101446.88;;;21.39;40.87
18918;BME280;9591;52.742;13.650;2022-09-03T10:49:56;101456.94;;;21.50;41.12
18918;BME280;9591;52.742;13.650;2022-09-03T10:53:00;101450.78;;;21.48;40.74
18918;BME280;9591;52.742;13.650;2022-09-03T10:55:57;101437.06;;;21.38;40.15
18918;BME280;9591;52.742;13.650;2022-09-03T10:58:59;101440.91;;;21.34;41.12
18918;BME280;9591;52.742;13.650;2022-09-03T11:01:55;101440.56;;;21.26;41.25
18918;BME280;9591;52.742;13.650;2022-09-03T11:04:50;101433.53;;;21.23;40.15
18918;BME280;9591;52.742;13.650;2022-09-03T11:07:44;101427.28;;;21.23;40.16
18918;BME280;9591;52.742;13.650;2022-09-03T11:10:37;101438.31;;;21.18;41.73
18918;BME280;9591;52.742;13.650;2022-09-03T11:13:28;101430.84;;;21.09;40.11
18918;BME280;9591;52.742;13.650;2022-09-03T11:16:21;101428.31;;;21.20;41.11
18918;BME280;9591;52.742;13.650;2022-09-03T11:19:13;101422.38;;;21.30;41.66
18918;BME280;9591;52.742;13.650;2022-09-03T11:22:03;101410.41;;;21.61;41.39
18918;BME280;9591;52.742;13.650;2022-09-03T11:24:56;101415.34;;;21.67;42.24
18918;BME280;9591;52.742;13.650;2022-09-03T11:27:53;101409.53;;;21.60;41.23
18918;BME280;9591;52.742;13.650;2022-09-03T11:30:51;101401.75;;;21.55;40.21
18918;BME280;9591;52.742;13.650;2022-09-03T11:33:46;101409.75;;;21.70;41.76
18918;BME280;9591;52.742;13.650;2022-09-03T11:36:36;101417.41;;;21.76;40.98
18918;BME280;9591;52.742;13.650;2022-09-03T11:39:34;101408.88;;;21.56;41.81
18918;BME280;9591;52.742;13.650;2022-09-03T11:42:31;101405.13;;;21.32;41.47
18918;BME280;9591;52.742;13.650;2022-09-03T11:45:22;101402.84;;;21.26;42.97
18918;BME280;9591;52.742;13.650;2022-09-03T11:48:17;101394.28;;;21.46;42.18
18918;BME280;9591;52.742;13.650;2022-09-03T11:51:18;101397.19;;;21.43;41.49
18918;BME280;9591;52.742;13.650;2022-09-03T11:54:23;101390.91;;;21.30;41.42
18918;BME280;9591;52.742;13.650;2022-09-03T11:57:12;101398.91;;;21.17;42.80
18918;BME280;9591;52.742;13.650;2022-09-03T12:00:09;101383.03;;;21.27;42.81
18918;BME280;9591;52.742;13.650;2022-09-03T12:03:02;101375.06;;;21.65;43.79
18918;BME280;9591;52.742;13.650;2022-09-03T12:06:03;101385.22;;;22.00;41.30
18918;BME280;9591;52.742;13.650;2022-09-03T12:09:05;101383.53;;;22.11;41.18
18918;BME280;9591;52.742;13.650;2022-09-03T12:12:10;101378.94;;;21.99;42.00
18918;BME280;9591;52.742;13.650;2022-09-03T12:15:04;101378.59;;;21.66;40.95
18918;BME280;9591;52.742;13.650;2022-09-03T12:17:58;101373.94;;;21.55;41.07
18918;BME280;9591;52.742;13.650;2022-09-03T12:21:09;101378.03;;;21.48;41.53
18918;BME280;9591;52.742;13.650;2022-09-03T12:24:00;101371.78;;;21.47;41.89
18918;BME280;9591;52.742;13.650;2022-09-03T12:26:47;101374.97;;;21.40;42.30
18918;BME280;9591;52.742;13.650;2022-09-03T12:29:34;101364.34;;;21.51;43.17
18918;BME280;9591;52.742;13.650;2022-09-03T12:32:21;101372.22;;;21.54;43.02
18918;BME280;9591;52.742;13.650;2022-09-03T12:35:15;101363.31;;;21.66;43.19
18918;BME280;9591;52.742;13.650;2022-09-03T12:38:22;101361.56;;;21.78;42.72
18918;BME280;9591;52.742;13.650;2022-09-03T12:41:20;101365.75;;;21.69;42.81
18918;BME280;9591;52.742;13.650;2022-09-03T12:44:11;101362.31;;;21.54;42.37
18918;BME280;9591;52.742;13.650;2022-09-03T12:47:10;101356.84;;;21.29;42.84
18918;BME280;9591;52.742;13.650;2022-09-03T12:50:21;101341.97;;;21.23;42.80
18918;BME280;9591;52.742;13.650;2022-09-03T12:53:11;101343.06;;;21.34;44.37
18918;BME280;9591;52.742;13.650;2022-09-03T12:56:00;101341.78;;;21.39;44.42
18918;BME280;9591;52.742;13.650;2022-09-03T12:58:51;101336.44;;;21.65;43.46
18918;BME280;9591;52.742;13.650;2022-09-03T13:01:46;101344.84;;;21.73;41.61
18918;BME280;9591;52.742;13.650;2022-09-03T13:04:35;101339.13;;;21.77;41.55
18918;BME280;9591;52.742;13.650;2022-09-03T13:07:26;101338.59;;;21.72;42.60
18918;BME280;9591;52.742;13.650;2022-09-03T13:10:24;101331.78;;;21.67;40.95
18918;BME280;9591;52.742;13.650;2022-09-03T13:13:21;101335.59;;;21.64;41.18
18918;BME280;9591;52.742;13.650;2022-09-03T13:16:28;101337.31;;;21.65;41.21
18918;BME280;9591;52.742;13.650;2022-09-03T13:19:25;101334.94;;;21.61;40.28
18918;BME280;9591;52.742;13.650;2022-09-03T13:22:21;101326.19;;;21.70;40.08
18918;BME280;9591;52.742;13.650;2022-09-03T13:25:15;101328.34;;;21.90;39.51
18918;BME280;9591;52.742;13.650;2022-09-03T13:28:18;101329.13;;;22.30;38.04
18918;BME280;9591;52.742;13.650;2022-09-03T13:31:22;101325.00;;;22.37;38.33
18918;BME280;9591;52.742;13.650;2022-09-03T13:34:16;101326.34;;;22.19;38.85
18918;BME280;9591;52.742;13.650;2022-09-03T13:37:14;101321.16;;;22.03;39.11
18918;BME280;9591;52.742;13.650;2022-09-03T13:40:15;101318.88;;;21.97;40.77
18918;BME280;9591;52.742;13.650;2022-09-03T13:43:09;101320.91;;;21.93;39.91
18918;BME280;9591;52.742;13.650;2022-09-03T13:46:06;101317.88;;;21.85;39.91
18918;BME280;9591;52.742;13.650;2022-09-03T13:48:58;101312.41;;;21.87;40.17
18918;BME280;9591;52.742;13.650;2022-09-03T13:52:12;101314.56;;;21.82;39.55
18918;BME280;9591;52.742;13.650;2022-09-03T13:55:07;101303.22;;;21.77;38.86
18918;BME280;9591;52.742;13.650;2022-09-03T13:58:00;101305.59;;;21.94;39.70
18918;BME280;9591;52.742;13.650;2022-09-03T14:00:53;101304.97;;;22.16;39.69
18918;BME280;9591;52.742;13.650;2022-09-03T14:03:54;101301.72;;;21.98;40.45
18918;BME280;9591;52.742;13.650;2022-09-03T14:06:57;101311.00;;;21.81;39.13
18918;BME280;9591;52.742;13.650;2022-09-03T14:09:57;101307.13;;;21.60;40.47
18918;BME280;9591;52.742;13.650;2022-09-03T14:15:57;101302.59;;;21.86;38.71
18918;BME280;9591;52.742;13.650;2022-09-03T14:18:54;101302.41;;;22.02;38.54
18918;BME280;9591;52.742;13.650;2022-09-03T14:21:46;101308.84;;;21.99;39.23
18918;BME280;9591;52.742;13.650;2022-09-03T14:24:44;101300.84;;;21.98;39.00
18918;BME280;9591;52.742;13.650;2022-09-03T14:27:32;101304.84;;;21.92;38.63
18918;BME280;9591;52.742;13.650;2022-09-03T14:30:37;101299.44;;;21.79;40.25
18918;BME280;9591;52.742;13.650;2022-09-03T14:33:37;101290.28;;;21.82;39.94
18918;BME280;9591;52.742;13.650;2022-09-03T14:36:28;101295.56;;;21.83;40.25
18918;BME280;9591;52.742;13.650;2022-09-03T14:39:25;101289.84;;;21.88;39.57
18918;BME280;9591;52.742;13.650;2022-09-03T14:42:43;101286.09;;;22.03;38.82
18918;BME280;9591;52.742;13.650;2022-09-03T14:46:00;101288.91;;;22.02;39.13
18918;BME280;9591;52.742;13.650;2022-09-03T14:49:03;101284.91;;;22.07;38.44
18918;BME280;9591;52.742;13.650;2022-09-03T14:52:06;101280.78;;;21.89;38.56
18918;BME280;9591;52.742;13.650;2022-09-03T14:55:13;101269.16;;;21.88;38.12
18918;BME280;9591;52.742;13.650;2022-09-03T14:58:14;101281.78;;;21.63;39.81
18918;BME280;9591;52.742;13.650;2022-09-03T15:01:09;101279.94;;;21.50;38.95
18918;BME280;9591;52.742;13.650;2022-09-03T15:04:23;101268.41;;;21.48;38.46